Terminal Aerodrome Forecast
Issued by NWS Wichita, KS

Home | Current Version | Previous Version | Text Only | Print | Product List | Glossary On
Versions: 1 2 3 4 5 6 7 8 9 10 11 12 13 14 15 16 17
990
FTUS43 KICT 210520
TAFICT
TAF
KICT 210520Z 2106/2206 30012KT P6SM SKC
     FM211500 22004KT P6SM SCT200
     FM211800 24008KT P6SM SCT200
     FM212300 29007KT P6SM SCT150
     FM220100 VRB03KT P6SM SCT150=

USA.gov is the U.S. government's official web portal to all federal, state and local government web resources and services.